createdAt,value
2023-09-03T00:03:26.613Z,12.85
2023-09-03T00:09:14.081Z,13.00
2023-09-03T00:15:00.896Z,12.40
2023-09-03T00:20:57.320Z,10.52
2023-09-03T00:26:47.071Z,11.70
2023-09-03T00:32:33.965Z,14.05
2023-09-03T00:38:21.302Z,12.77
2023-09-03T00:44:08.579Z,12.77
2023-09-03T00:49:55.764Z,14.32
2023-09-03T00:55:44.437Z,13.77
2023-09-03T01:01:31.727Z,13.23
2023-09-03T01:07:23.949Z,13.85
2023-09-03T01:13:25.302Z,12.43
2023-09-03T01:19:56.579Z,13.07
2023-09-03T01:25:49.020Z,12.30
2023-09-03T01:31:37.519Z,13.93
2023-09-03T01:37:24.814Z,13.88
2023-09-03T01:43:11.666Z,12.05
2023-09-03T01:49:26.272Z,13.80
2023-09-03T01:55:16.750Z,12.45
2023-09-03T02:01:04.393Z,14.07
2023-09-03T02:06:51.417Z,11.23
2023-09-03T02:12:38.521Z,10.77
2023-09-03T02:18:25.422Z,11.00
2023-09-03T02:24:12.571Z,13.15
2023-09-03T02:30:06.249Z,11.35
2023-09-03T02:35:53.530Z,12.88
2023-09-03T02:41:40.582Z,14.13
2023-09-03T02:47:28.348Z,11.52
2023-09-03T02:53:15.039Z,10.93
2023-09-03T02:59:01.732Z,11.23
2023-09-03T03:04:48.591Z,11.77
2023-09-03T03:10:35.661Z,10.68
2023-09-03T03:16:22.676Z,10.65
2023-09-03T03:22:13.493Z,11.70
2023-09-03T03:28:00.489Z,10.60
2023-09-03T03:33:48.826Z,10.70
2023-09-03T03:39:38.216Z,10.80
2023-09-03T03:45:26.656Z,12.85
2023-09-03T03:51:14.317Z,12.50
2023-09-03T03:57:01.525Z,12.07
2023-09-03T04:02:48.390Z,12.25
2023-09-03T04:08:37.675Z,10.40
2023-09-03T04:14:24.435Z,10.85
2023-09-03T04:20:12.365Z,13.40
2023-09-03T04:25:59.751Z,12.07
2023-09-03T04:31:49.407Z,11.77
2023-09-03T04:37:36.199Z,13.25
2023-09-03T04:43:24.287Z,12.05
2023-09-03T04:49:13.319Z,12.73
2023-09-03T04:55:00.108Z,11.15
2023-09-03T05:00:47.202Z,11.55
2023-09-03T05:06:34.336Z,13.23
2023-09-03T05:12:21.356Z,14.75
2023-09-03T05:18:08.114Z,14.60
2023-09-03T05:23:55.681Z,15.70
2023-09-03T05:29:42.956Z,14.70
2023-09-03T05:35:30.763Z,13.63
2023-09-03T05:41:17.710Z,16.67
2023-09-03T05:47:05.069Z,14.75
2023-09-03T05:52:52.516Z,15.52
2023-09-03T05:58:39.874Z,12.60
2023-09-03T06:04:28.749Z,13.85
2023-09-03T06:10:16.023Z,14.32
2023-09-03T06:16:05.651Z,14.10
2023-09-03T06:21:52.355Z,13.95
2023-09-03T06:27:39.256Z,14.68
2023-09-03T06:33:26.216Z,14.52
2023-09-03T06:39:14.683Z,14.70
2023-09-03T06:45:01.552Z,13.57
2023-09-03T06:50:52.107Z,15.15
2023-09-03T06:56:48.840Z,16.88
2023-09-03T07:02:38.931Z,19.00
2023-09-03T07:08:32.961Z,19.60
2023-09-03T07:14:22.084Z,18.17
2023-09-03T07:20:10.356Z,17.35
2023-09-03T07:26:08.175Z,18.88
2023-09-03T07:31:58.363Z,17.63
2023-09-03T07:37:45.703Z,17.65
2023-09-03T07:43:32.467Z,12.88
2023-09-03T07:49:20.248Z,15.73
2023-09-03T07:55:08.142Z,14.48
2023-09-03T08:00:55.938Z,16.58
2023-09-03T08:06:43.143Z,17.10
2023-09-03T08:12:30.629Z,63.42
2023-09-03T08:18:32.902Z,26.38
2023-09-03T08:24:22.172Z,30.92
2023-09-03T08:30:11.365Z,14.27
2023-09-03T08:35:58.932Z,82.38
2023-09-03T08:41:47.068Z,25.75
2023-09-03T08:47:38.969Z,13.95
2023-09-03T08:53:26.210Z,18.63
2023-09-03T08:59:12.919Z,13.80
2023-09-03T09:05:04.370Z,61.63
2023-09-03T09:10:53.020Z,10.98
2023-09-03T09:16:39.655Z,12.63
2023-09-03T09:22:27.331Z,12.65
2023-09-03T09:28:18.566Z,10.38
2023-09-03T09:34:15.535Z,7.55
2023-09-03T09:40:06.753Z,12.55
2023-09-03T09:45:54.536Z,17.52
2023-09-03T09:51:42.234Z,14.52
2023-09-03T09:57:41.385Z,17.25
2023-09-03T10:03:57.168Z,42.92
2023-09-03T10:10:15.127Z,92.90
2023-09-03T10:16:20.264Z,282.15
2023-09-03T10:22:14.754Z,223.82
2023-09-03T10:28:08.518Z,226.48
2023-09-03T10:34:08.076Z,63.80
2023-09-03T10:40:37.506Z,42.47
2023-09-03T10:46:30.544Z,22.90
2023-09-03T10:52:36.270Z,54.75
2023-09-03T10:58:34.188Z,30.83
2023-09-03T11:04:38.985Z,65.43
2023-09-03T11:10:26.660Z,95.90
2023-09-03T11:16:16.005Z,3.40
2023-09-03T11:22:08.172Z,3.30
2023-09-03T11:33:52.214Z,4.25
2023-09-03T11:39:39.079Z,3.40
2023-09-03T11:45:34.523Z,617.63
2023-09-03T11:51:29.972Z,383.35
2023-09-03T11:57:17.855Z,396.38
2023-09-03T12:03:06.122Z,311.63
2023-09-03T12:08:53.028Z,759.92
2023-09-03T12:14:42.307Z,682.25
2023-09-03T12:20:40.965Z,556.45
2023-09-03T12:26:27.816Z,507.75
2023-09-03T12:32:18.432Z,492.45
2023-09-03T12:38:07.965Z,373.02
2023-09-03T12:44:08.779Z,456.92
2023-09-03T12:49:58.772Z,718.70
2023-09-03T12:55:48.096Z,658.80
2023-09-03T13:01:42.202Z,653.42
2023-09-03T13:07:31.537Z,664.40
2023-09-03T13:13:23.512Z,762.55
2023-09-03T13:19:15.158Z,619.25
2023-09-03T13:25:02.287Z,662.45
2023-09-03T13:30:57.644Z,691.85
2023-09-03T13:36:59.250Z,640.00
2023-09-03T13:42:49.310Z,686.63
2023-09-03T13:48:37.945Z,661.50
2023-09-03T13:54:24.933Z,785.53
2023-09-03T14:00:13.043Z,786.90
2023-09-03T14:06:08.194Z,785.20
2023-09-03T14:11:55.577Z,773.70
2023-09-03T14:17:42.467Z,757.13
2023-09-03T14:23:31.401Z,776.58
2023-09-03T14:29:20.280Z,725.60
2023-09-03T14:35:11.838Z,733.65
2023-09-03T14:46:46.565Z,749.97
2023-09-03T14:52:34.625Z,698.92
2023-09-03T14:58:24.734Z,670.90
2023-09-03T15:04:11.967Z,686.83
2023-09-03T15:10:07.491Z,732.65
2023-09-03T15:15:58.120Z,569.35
2023-09-03T15:21:46.436Z,484.40
2023-09-03T15:33:42.551Z,632.53
2023-09-03T15:40:09.340Z,660.40
2023-09-03T15:46:22.134Z,652.05
2023-09-03T16:00:05.763Z,739.90
2023-09-03T16:06:34.629Z,674.65
2023-09-03T16:13:45.638Z,755.53
2023-09-03T16:21:41.482Z,635.05
2023-09-03T16:27:19.235Z,607.20
2023-09-03T16:33:09.875Z,528.20
2023-09-03T16:38:59.978Z,539.67
2023-09-03T16:44:46.810Z,632.17
2023-09-03T16:50:37.141Z,618.22
2023-09-03T16:56:24.210Z,600.80
2023-09-03T17:02:13.553Z,597.15
2023-09-03T17:08:02.704Z,585.03
2023-09-03T17:13:49.717Z,631.08
2023-09-03T17:19:37.651Z,580.97
2023-09-03T17:25:35.837Z,509.00
2023-09-03T17:31:27.871Z,549.38
2023-09-03T17:37:15.083Z,649.80
2023-09-03T17:43:04.466Z,479.50
2023-09-03T17:48:52.046Z,516.88
2023-09-03T17:54:39.034Z,501.02
2023-09-03T18:00:27.458Z,487.88
2023-09-03T18:06:14.587Z,350.23
2023-09-03T18:12:03.937Z,486.98
2023-09-03T18:17:51.120Z,439.83
2023-09-03T18:23:40.640Z,355.35
2023-09-03T18:35:18.403Z,303.27
2023-09-03T18:41:13.076Z,317.35
2023-09-03T18:47:02.647Z,265.35
2023-09-03T18:53:04.352Z,327.15
2023-09-03T18:58:51.672Z,335.80
2023-09-03T19:04:38.840Z,257.70
2023-09-03T19:10:27.069Z,274.70
2023-09-03T19:16:21.317Z,297.50
2023-09-03T19:22:10.506Z,279.02
2023-09-03T19:28:00.062Z,260.40
2023-09-03T19:33:46.797Z,258.63
2023-09-03T19:39:33.571Z,313.98
2023-09-03T19:45:22.459Z,276.30
2023-09-03T19:51:09.430Z,216.30
2023-09-03T19:56:58.833Z,160.30
2023-09-03T20:02:45.763Z,190.45
2023-09-03T20:08:32.839Z,39.80
2023-09-03T20:14:19.595Z,16.02
2023-09-03T20:20:08.061Z,250.25
2023-09-03T20:33:14.533Z,155.57
2023-09-03T20:40:18.547Z,234.82
2023-09-03T20:46:02.019Z,17.85
2023-09-03T20:52:03.753Z,36.72
2023-09-03T20:57:50.729Z,12.32
2023-09-03T21:03:40.345Z,21.23
2023-09-03T21:09:35.269Z,35.17
2023-09-03T21:15:46.303Z,12.32
2023-09-03T21:21:45.874Z,6.97
2023-09-03T21:27:49.522Z,5.90
2023-09-03T21:33:49.159Z,6.53
2023-09-03T21:39:47.573Z,6.05
2023-09-03T21:45:34.647Z,5.53
2023-09-03T21:51:21.862Z,6.45
2023-09-03T21:57:56.108Z,25.58
2023-09-03T22:03:57.430Z,6.85
2023-09-03T22:18:07.605Z,7.13
2023-09-03T22:23:57.170Z,8.48
2023-09-03T22:29:45.164Z,8.07
2023-09-03T22:35:31.929Z,8.35
2023-09-03T22:41:19.017Z,9.88
2023-09-03T22:55:04.951Z,38.53
2023-09-03T23:00:52.370Z,41.15
2023-09-03T23:06:39.181Z,45.22
2023-09-03T23:13:37.279Z,61.50
2023-09-03T23:19:24.115Z,57.08
2023-09-03T23:25:10.848Z,29.75
2023-09-03T23:30:57.715Z,27.13
2023-09-03T23:36:44.945Z,17.25
2023-09-03T23:42:31.731Z,23.50
2023-09-03T23:48:21.254Z,18.98
2023-09-03T23:54:10.855Z,27.27
2023-09-03T23:59:58.343Z,14.55
